Time;durP1;ratioP1;P1;durP2;ratioP2;P2;SDS_P1;SDS_P2;PMS_P1;PMS_P2;Temp;Humidity;BMP_temperature;BMP_pressure;BME280_temperature;BME280_humidity;BME280_pressure;Samples;Min_cycle;Max_cycle;Signal;HPM_P1;HPM_P2
2021/12/19 00:01:24;;;;;;;23.52;12.45;;;;;;;;;;7824745;22;20016;-59
2021/12/19 00:04:32;;;;;;;21.55;12.25;;;;;;;;;;7832102;22;20019;-59
2021/12/19 00:10:57;;;;;;;21.17;11.15;;;;;;;;;;7836446;22;20015;-59
2021/12/19 00:14:00;;;;;;;23.95;11.60;;;;;;;;;;7797022;22;20026;-59
2021/12/19 00:17:05;;;;;;;20.67;11.27;;;;;;;;;;7796640;22;20102;-59
2021/12/19 00:20:11;;;;;;;21.42;11.50;;;;;;;;;;7835595;22;20015;-59
2021/12/19 00:23:33;;;;;;;23.23;11.90;;;;;;;;;;7833635;22;20015;-59
2021/12/19 00:26:36;;;;;;;21.35;11.85;;;;;;;;;;7820653;22;20019;-59
2021/12/19 00:29:39;;;;;;;24.52;13.00;;;;;;;;;;7820865;22;20049;-59
2021/12/19 00:32:44;;;;;;;20.23;11.05;;;;;;;;;;7821936;22;20015;-59
2021/12/19 00:35:47;;;;;;;20.92;11.27;;;;;;;;;;7823884;22;20015;-59
2021/12/19 00:38:50;;;;;;;25.77;12.23;;;;;;;;;;7823620;22;20015;-59
2021/12/19 00:41:53;;;;;;;23.88;11.63;;;;;;;;;;7821738;22;20343;-60
2021/12/19 00:45:00;;;;;;;20.77;11.43;;;;;;;;;;7823968;22;20015;-60
2021/12/19 00:48:05;;;;;;;21.02;11.38;;;;;;;;;;7809805;22;20019;-60
2021/12/19 00:51:12;;;;;;;20.85;10.95;;;;;;;;;;7809112;22;20023;-60
2021/12/19 00:54:15;;;;;;;23.67;12.05;;;;;;;;;;7823413;22;20019;-60
2021/12/19 00:57:18;;;;;;;22.80;12.48;;;;;;;;;;7796901;22;20492;-60
2021/12/19 01:00:24;;;;;;;20.83;10.90;;;;;;;;;;7823913;22;20019;-59
2021/12/19 01:03:28;;;;;;;19.75;10.82;;;;;;;;;;7834974;22;20019;-60
2021/12/19 01:06:31;;;;;;;24.67;12.77;;;;;;;;;;7824302;22;20019;-60
2021/12/19 01:09:34;;;;;;;25.15;12.27;;;;;;;;;;7823047;22;20022;-60
2021/12/19 01:12:38;;;;;;;21.83;11.55;;;;;;;;;;7796026;22;20116;-60
2021/12/19 01:15:42;;;;;;;55.40;26.30;;;;;;;;;;7795939;22;20026;-60
2021/12/19 01:18:46;;;;;;;25.77;12.52;;;;;;;;;;7823888;22;20465;-59
2021/12/19 01:21:52;;;;;;;24.88;13.30;;;;;;;;;;7836637;22;20015;-59
2021/12/19 01:24:55;;;;;;;25.75;13.10;;;;;;;;;;7823035;22;20019;-60
2021/12/19 01:27:58;;;;;;;26.30;13.52;;;;;;;;;;7824124;22;20312;-59
2021/12/19 01:31:01;;;;;;;25.88;13.73;;;;;;;;;;7824650;22;20022;-59
2021/12/19 01:34:06;;;;;;;24.67;13.82;;;;;;;;;;7825511;22;20015;-59
2021/12/19 01:37:09;;;;;;;26.20;14.15;;;;;;;;;;7824226;22;20060;-59
2021/12/19 01:40:13;;;;;;;25.08;12.77;;;;;;;;;;7799131;22;20015;-59
2021/12/19 01:43:20;;;;;;;29.13;13.95;;;;;;;;;;7798306;22;20039;-59
2021/12/19 01:46:25;;;;;;;25.77;13.35;;;;;;;;;;7838120;22;20045;-59
2021/12/19 01:49:32;;;;;;;19.60;10.93;;;;;;;;;;7839273;22;20458;-59
2021/12/19 01:52:37;;;;;;;23.05;12.23;;;;;;;;;;7826089;22;20019;-60
2021/12/19 01:55:41;;;;;;;24.08;13.48;;;;;;;;;;7838071;22;20029;-59
2021/12/19 01:58:46;;;;;;;22.85;11.20;;;;;;;;;;7825390;22;20057;-59
2021/12/19 02:01:50;;;;;;;26.20;13.33;;;;;;;;;;7798029;22;20022;-60
2021/12/19 02:04:54;;;;;;;24.17;12.35;;;;;;;;;;7823364;22;20015;-59
2021/12/19 02:07:59;;;;;;;21.73;12.18;;;;;;;;;;7824595;22;20350;-59
2021/12/19 02:11:04;;;;;;;20.17;11.52;;;;;;;;;;7835269;22;20019;-59
2021/12/19 02:14:08;;;;;;;21.02;11.65;;;;;;;;;;7820844;22;20453;-59
2021/12/19 02:17:11;;;;;;;21.33;11.00;;;;;;;;;;7794387;22;20476;-59
2021/12/19 02:20:16;;;;;;;22.45;11.63;;;;;;;;;;7795209;22;20015;-59
2021/12/19 02:23:19;;;;;;;23.83;12.67;;;;;;;;;;7808651;22;20026;-59
2021/12/19 02:26:22;;;;;;;23.00;12.93;;;;;;;;;;7825256;22;20019;-59
2021/12/19 02:29:25;;;;;;;22.50;11.68;;;;;;;;;;7797308;22;20026;-59
2021/12/19 02:32:30;;;;;;;22.55;12.35;;;;;;;;;;7797212;22;20034;-59
2021/12/19 02:35:35;;;;;;;23.40;12.48;;;;;;;;;;7797229;22;20019;-60
2021/12/19 02:48:37;;;;;;;23.20;11.60;;;;;;;;;;7835561;22;20388;-61
2021/12/19 02:51:41;;;;;;;21.77;11.13;;;;;;;;;;7820860;22;20466;-60
2021/12/19 02:54:44;;;;;;;22.42;11.55;;;;;;;;;;7821671;22;20026;-60
2021/12/19 02:57:48;;;;;;;18.40;10.07;;;;;;;;;;7820183;22;20026;-61
2021/12/19 03:00:54;;;;;;;20.50;10.52;;;;;;;;;;7833765;22;20015;-61
2021/12/19 03:03:57;;;;;;;18.15;9.63;;;;;;;;;;7823784;22;20446;-60
2021/12/19 03:07:02;;;;;;;17.77;10.75;;;;;;;;;;7825379;22;20363;-60
2021/12/19 03:10:26;;;;;;;19.58;10.35;;;;;;;;;;7823252;22;20472;-60
2021/12/19 03:17:55;;;;;;;20.02;10.80;;;;;;;;;;7809837;22;20050;-60
2021/12/19 03:20:16;;;;;;;21.77;11.98;;;;;;;;;;7838054;22;20015;-60
2021/12/19 03:23:23;;;;;;;22.75;11.40;;;;;;;;;;7837927;22;20015;-60
2021/12/19 03:26:26;;;;;;;21.13;10.55;;;;;;;;;;7824065;22;20019;-60
2021/12/19 03:29:29;;;;;;;22.27;11.35;;;;;;;;;;7797364;22;20347;-60
2021/12/19 03:32:34;;;;;;;19.65;11.23;;;;;;;;;;7837855;22;20011;-60
2021/12/19 03:35:37;;;;;;;21.80;11.77;;;;;;;;;;7824444;22;20102;-60
2021/12/19 03:38:44;;;;;;;21.13;11.68;;;;;;;;;;7822402;22;20020;-60
2021/12/19 03:41:47;;;;;;;21.13;11.95;;;;;;;;;;7810903;22;20088;-60
2021/12/19 03:44:49;;;;;;;23.20;12.75;;;;;;;;;;7797264;22;20015;-60
2021/12/19 03:47:53;;;;;;;21.70;12.13;;;;;;;;;;7823986;22;20092;-61
2021/12/19 03:50:56;;;;;;;21.52;13.00;;;;;;;;;;7824974;22;20073;-60
2021/12/19 03:54:02;;;;;;;23.15;12.57;;;;;;;;;;7837345;22;20410;-60
2021/12/19 03:57:05;;;;;;;23.63;13.63;;;;;;;;;;7824032;22;20019;-60
2021/12/19 04:00:10;;;;;;;23.40;13.18;;;;;;;;;;7823978;22;20069;-60
2021/12/19 04:03:18;;;;;;;22.55;12.48;;;;;;;;;;7797445;22;20049;-60
2021/12/19 04:06:21;;;;;;;20.20;11.55;;;;;;;;;;7824654;22;20019;-60
2021/12/19 04:09:28;;;;;;;21.80;12.50;;;;;;;;;;7808764;22;20469;-60
2021/12/19 04:12:31;;;;;;;20.52;12.18;;;;;;;;;;7824539;22;20311;-60
2021/12/19 04:15:36;;;;;;;24.77;12.45;;;;;;;;;;7810106;22;20466;-60
2021/12/19 04:18:42;;;;;;;;;;;;;;;;;;7836029;22;20039;-60
2021/12/19 04:21:45;;;;;;;20.98;10.90;;;;;;;;;;7821806;22;19915;-59
2021/12/19 04:24:51;;;;;;;;;;;;;;;;;;7837529;22;20412;-60
2021/12/19 04:27:55;;;;;;;21.35;11.10;;;;;;;;;;7823060;22;19915;-60
2021/12/19 04:31:00;;;;;;;21.50;12.75;;;;;;;;;;7822894;22;20025;-59
2021/12/19 04:34:03;;;;;;;19.10;10.70;;;;;;;;;;7806996;22;20030;-60
2021/12/19 04:37:32;;;;;;;21.10;11.13;;;;;;;;;;7794876;22;20334;-60
2021/12/19 04:40:36;;;;;;;20.23;11.30;;;;;;;;;;7820250;22;20015;-59
2021/12/19 04:54:00;;;;;;;20.17;11.63;;;;;;;;;;7836878;22;20023;-60
2021/12/19 04:57:20;;;;;;;18.85;10.80;;;;;;;;;;7834246;22;20023;-60
2021/12/19 05:00:34;;;;;;;18.95;11.18;;;;;;;;;;7836631;22;20069;-60
2021/12/19 05:03:45;;;;;;;20.02;10.60;;;;;;;;;;7836178;22;20061;-59
2021/12/19 05:14:02;;;;;;;19.63;11.27;;;;;;;;;;7837328;22;20747;-60
2021/12/19 05:17:05;;;;;;;20.00;10.50;;;;;;;;;;7839603;22;20023;-60
2021/12/19 05:20:14;;;;;;;18.65;10.77;;;;;;;;;;7839199;22;20015;-60
2021/12/19 05:23:23;;;;;;;18.05;10.30;;;;;;;;;;7838433;22;20094;-59
2021/12/19 05:26:26;;;;;;;17.45;9.88;;;;;;;;;;7811442;22;20461;-61
2021/12/19 05:29:29;;;;;;;16.55;9.63;;;;;;;;;;7799216;22;20084;-59
2021/12/19 05:32:34;;;;;;;17.05;9.70;;;;;;;;;;7826184;22;20026;-59
2021/12/19 05:35:58;;;;;;;15.77;9.30;;;;;;;;;;7797978;22;20054;-59
2021/12/19 05:45:44;;;;;;;13.85;8.57;;;;;;;;;;7811482;22;20015;-61
2021/12/19 05:48:48;;;;;;;13.38;7.90;;;;;;;;;;7825108;22;20020;-60
2021/12/19 05:51:51;;;;;;;16.30;9.05;;;;;;;;;;7826293;22;20477;-60
2021/12/19 05:54:54;;;;;;;14.40;8.52;;;;;;;;;;7826307;22;20098;-59
2021/12/19 05:57:57;;;;;;;16.23;9.55;;;;;;;;;;7825206;22;20019;-59
2021/12/19 06:01:00;;;;;;;14.73;9.27;;;;;;;;;;7798468;22;20020;-60
2021/12/19 06:04:05;;;;;;;14.90;9.45;;;;;;;;;;7826245;22;20015;-60
2021/12/19 06:07:08;;;;;;;16.05;9.90;;;;;;;;;;7825993;22;20019;-60
2021/12/19 06:10:11;;;;;;;14.88;9.00;;;;;;;;;;7798083;22;20023;-60
2021/12/19 06:13:14;;;;;;;17.35;9.40;;;;;;;;;;7826112;22;20442;-59
2021/12/19 06:16:17;;;;;;;16.23;9.90;;;;;;;;;;7825416;22;20073;-59
2021/12/19 06:19:21;;;;;;;14.60;9.00;;;;;;;;;;7797523;22;20338;-59
2021/12/19 06:22:24;;;;;;;16.30;9.27;;;;;;;;;;7798381;22;20362;-59
2021/12/19 06:25:28;;;;;;;13.57;8.25;;;;;;;;;;7826464;22;20019;-60
2021/12/19 06:28:34;;;;;;;14.07;8.60;;;;;;;;;;7810753;22;20023;-59
2021/12/19 06:31:37;;;;;;;14.20;9.15;;;;;;;;;;7824840;22;20023;-59
2021/12/19 06:34:42;;;;;;;13.30;8.40;;;;;;;;;;7825750;22;20027;-59
2021/12/19 06:37:45;;;;;;;14.55;8.80;;;;;;;;;;7825938;22;20034;-59
2021/12/19 06:40:50;;;;;;;13.75;8.70;;;;;;;;;;7809705;22;20342;-59
2021/12/19 06:43:53;;;;;;;13.70;8.60;;;;;;;;;;7785536;22;20015;-60
2021/12/19 06:46:56;;;;;;;14.30;7.47;;;;;;;;;;7787269;22;20027;-59
2021/12/19 06:50:02;;;;;;;12.75;7.97;;;;;;;;;;7784841;22;20016;-59
2021/12/19 06:53:05;;;;;;;14.05;7.90;;;;;;;;;;7797653;22;20351;-60
2021/12/19 06:56:07;;;;;;;12.88;8.30;;;;;;;;;;7787193;22;20019;-59
2021/12/19 06:59:10;;;;;;;12.85;8.00;;;;;;;;;;7786956;22;20347;-59
2021/12/19 07:02:17;;;;;;;13.15;7.95;;;;;;;;;;7798397;22;20043;-59
2021/12/19 07:05:21;;;;;;;15.77;9.18;;;;;;;;;;7787013;22;20019;-59
2021/12/19 07:08:24;;;;;;;14.50;8.38;;;;;;;;;;7787286;22;20107;-58
2021/12/19 07:11:28;;;;;;;16.52;9.00;;;;;;;;;;7785972;22;20027;-60
2021/12/19 07:14:31;;;;;;;13.27;7.93;;;;;;;;;;7786397;22;20015;-60
2021/12/19 07:17:34;;;;;;;13.25;7.88;;;;;;;;;;7785871;22;20136;-59
2021/12/19 07:20:42;;;;;;;11.40;7.28;;;;;;;;;;7784479;22;20187;-59
2021/12/19 07:23:48;;;;;;;10.95;7.18;;;;;;;;;;7798324;22;20016;-60
2021/12/19 07:26:51;;;;;;;11.80;6.80;;;;;;;;;;7785369;22;20428;-60
2021/12/19 07:29:56;;;;;;;10.85;7.18;;;;;;;;;;7786604;22;20015;-59
2021/12/19 07:33:00;;;;;;;10.32;6.43;;;;;;;;;;7798034;22;20019;-60
2021/12/19 07:36:05;;;;;;;9.93;6.00;;;;;;;;;;7786697;22;20020;-60
2021/12/19 07:39:12;;;;;;;10.02;5.97;;;;;;;;;;7787052;22;20016;-59
2021/12/19 07:42:15;;;;;;;9.65;6.47;;;;;;;;;;7798699;22;20031;-60
2021/12/19 07:45:21;;;;;;;;;;;;;;;;;;7798763;22;20019;-60
2021/12/19 07:48:24;;;;;;;11.35;6.85;;;;;;;;;;7786625;22;19923;-59
2021/12/19 07:51:29;;;;;;;9.13;6.00;;;;;;;;;;7784827;22;20043;-60
2021/12/19 07:54:34;;;;;;;10.13;6.28;;;;;;;;;;7798118;22;20016;-60
2021/12/19 07:57:37;;;;;;;11.75;7.03;;;;;;;;;;7786090;22;20039;-60
2021/12/19 08:00:40;;;;;;;10.52;6.75;;;;;;;;;;7784658;22;20019;-59
2021/12/19 08:03:43;;;;;;;10.00;6.63;;;;;;;;;;7785567;22;20452;-59
2021/12/19 08:06:48;;;;;;;10.00;5.97;;;;;;;;;;7785635;22;20016;-59
2021/12/19 08:10:12;;;;;;;10.88;6.13;;;;;;;;;;7786148;22;20038;-59
2021/12/19 08:13:15;;;;;;;10.70;6.82;;;;;;;;;;7785123;22;20049;-59
2021/12/19 08:16:18;;;;;;;9.60;5.95;;;;;;;;;;7785188;22;20039;-59
2021/12/19 08:19:21;;;;;;;10.27;5.95;;;;;;;;;;7785827;22;20035;-59
2021/12/19 08:22:26;;;;;;;9.93;6.13;;;;;;;;;;7785990;22;20073;-59
2021/12/19 08:25:29;;;;;;;;;;;;;;;;;;7797384;22;20020;-60
2021/12/19 08:28:32;;;;;;;10.48;5.82;;;;;;;;;;7785337;22;19916;-60
2021/12/19 08:31:35;;;;;;;9.77;5.43;;;;;;;;;;7786032;22;20034;-60
2021/12/19 08:34:38;;;;;;;10.98;6.32;;;;;;;;;;7784162;22;20092;-60
2021/12/19 08:37:43;;;;;;;8.32;5.38;;;;;;;;;;7784611;22;20016;-61
2021/12/19 08:40:47;;;;;;;9.82;5.43;;;;;;;;;;7783994;22;20024;-61
2021/12/19 08:43:50;;;;;;;9.80;6.30;;;;;;;;;;7806189;22;20019;-61
2021/12/19 08:46:56;;;;;;;9.73;6.88;;;;;;;;;;7808679;22;20022;-60
2021/12/19 08:49:59;;;;;;;11.88;6.55;;;;;;;;;;7796279;22;20026;-60
2021/12/19 08:53:04;;;;;;;11.77;6.63;;;;;;;;;;7824431;22;20019;-60
2021/12/19 08:56:11;;;;;;;13.25;6.93;;;;;;;;;;7836634;22;20317;-60
2021/12/19 08:59:14;;;;;;;10.30;6.20;;;;;;;;;;7822673;22;20019;-59
2021/12/19 09:02:17;;;;;;;11.43;6.78;;;;;;;;;;7824188;22;20011;-59
2021/12/19 09:05:21;;;;;;;12.60;7.78;;;;;;;;;;7824326;22;20094;-60
2021/12/19 09:08:25;;;;;;;12.10;6.95;;;;;;;;;;7795533;22;20030;-60
2021/12/19 09:11:28;;;;;;;10.20;6.75;;;;;;;;;;7823437;22;20015;-60
2021/12/19 09:14:32;;;;;;;12.63;7.22;;;;;;;;;;7796791;22;20335;-60
2021/12/19 09:17:37;;;;;;;12.23;6.77;;;;;;;;;;7836680;22;20019;-60
2021/12/19 09:20:40;;;;;;;12.82;7.18;;;;;;;;;;7822724;22;20255;-61
2021/12/19 09:23:45;;;;;;;15.00;7.28;;;;;;;;;;7796837;22;20022;-60
2021/12/19 09:26:48;;;;;;;9.63;5.53;;;;;;;;;;7824179;22;20026;-60
2021/12/19 09:29:50;;;;;;;13.00;7.40;;;;;;;;;;7823227;22;20011;-61
2021/12/19 09:32:56;;;;;;;16.02;7.10;;;;;;;;;;7836489;22;20354;-60
2021/12/19 09:35:59;;;;;;;13.63;7.25;;;;;;;;;;7796377;22;20069;-60
2021/12/19 09:39:04;;;;;;;15.82;8.57;;;;;;;;;;7796568;22;20015;-59
2021/12/19 09:42:10;;;;;;;12.02;6.93;;;;;;;;;;7795346;22;20015;-60
2021/12/19 09:45:14;;;;;;;13.80;7.05;;;;;;;;;;7824048;22;20030;-59
2021/12/19 09:48:18;;;;;;;14.02;7.00;;;;;;;;;;7823960;22;20043;-59
2021/12/19 09:51:21;;;;;;;11.70;6.20;;;;;;;;;;7795102;22;20022;-60
2021/12/19 09:54:25;;;;;;;11.60;6.55;;;;;;;;;;7798906;22;20015;-61
2021/12/19 09:57:28;;;;;;;10.43;5.78;;;;;;;;;;7827134;22;20022;-60
2021/12/19 10:00:31;;;;;;;13.88;7.30;;;;;;;;;;7825608;22;20015;-60
2021/12/19 10:03:35;;;;;;;10.20;5.75;;;;;;;;;;7797668;22;20019;-61
2021/12/19 10:06:38;;;;;;;13.30;6.47;;;;;;;;;;7825729;22;20026;-60
2021/12/19 10:09:54;;;;;;;10.85;6.25;;;;;;;;;;7798657;22;20389;-61
2021/12/19 10:12:58;;;;;;;11.45;6.13;;;;;;;;;;7837622;22;20060;-61
2021/12/19 10:16:02;;;;;;;12.82;6.68;;;;;;;;;;7798295;22;20056;-61
2021/12/19 10:19:05;;;;;;;9.70;6.07;;;;;;;;;;7826024;22;20446;-61
2021/12/19 10:22:08;;;;;;;11.98;7.05;;;;;;;;;;7825239;22;20019;-63
2021/12/19 10:25:20;;;;;;;10.90;6.35;;;;;;;;;;7797717;22;20015;-62
2021/12/19 10:28:24;;;;;;;10.63;6.30;;;;;;;;;;7811550;22;20020;-63
2021/12/19 10:31:28;;;;;;;12.55;6.57;;;;;;;;;;7796882;22;20091;-62
2021/12/19 10:34:32;;;;;;;12.05;6.03;;;;;;;;;;7833006;22;20019;-62
2021/12/19 10:37:35;;;;;;;12.98;6.03;;;;;;;;;;7820942;22;20094;-62
2021/12/19 10:40:44;;;;;;;12.27;5.97;;;;;;;;;;7833726;22;20023;-61
2021/12/19 10:43:56;;;;;;;9.02;5.57;;;;;;;;;;7824031;22;20100;-60
2021/12/19 10:47:17;;;;;;;9.75;5.55;;;;;;;;;;7828753;22;20443;-62
2021/12/19 10:50:20;;;;;;;10.05;5.95;;;;;;;;;;7802845;22;20019;-61
2021/12/19 10:53:24;;;;;;;14.75;6.35;;;;;;;;;;7792519;22;20022;-62
2021/12/19 10:56:32;;;;;;;6.90;4.85;;;;;;;;;;7833778;22;20343;-61
2021/12/19 10:59:35;;;;;;;10.18;5.50;;;;;;;;;;7836780;22;20030;-61
2021/12/19 11:02:39;;;;;;;10.50;5.72;;;;;;;;;;7797905;22;20023;-61
2021/12/19 11:05:42;;;;;;;10.23;6.30;;;;;;;;;;7825007;22;20441;-62
2021/12/19 11:08:46;;;;;;;11.75;6.03;;;;;;;;;;7824116;22;20128;-62
2021/12/19 11:11:53;;;;;;;11.80;5.88;;;;;;;;;;7838252;22;20019;-61
2021/12/19 11:15:00;;;;;;;10.00;5.97;;;;;;;;;;7825290;22;20396;-61
2021/12/19 11:18:03;;;;;;;9.38;6.07;;;;;;;;;;7824069;22;20450;-61
2021/12/19 11:21:06;;;;;;;11.43;6.00;;;;;;;;;;7797444;22;20065;-61
2021/12/19 11:24:10;;;;;;;10.65;6.00;;;;;;;;;;7825106;22;20019;-61
2021/12/19 11:27:14;;;;;;;11.82;5.80;;;;;;;;;;7797246;22;20099;-61
2021/12/19 11:30:21;;;;;;;11.40;6.65;;;;;;;;;;7809286;22;20030;-63
2021/12/19 11:33:29;;;;;;;9.75;5.90;;;;;;;;;;7825266;22;20094;-62
2021/12/19 11:36:34;;;;;;;12.02;6.00;;;;;;;;;;7826196;22;20024;-61
2021/12/19 11:39:38;;;;;;;10.65;6.25;;;;;;;;;;7796615;22;20025;-61
2021/12/19 11:42:44;;;;;;;9.60;5.85;;;;;;;;;;7807779;22;20030;-61
2021/12/19 11:45:57;;;;;;;8.70;5.55;;;;;;;;;;7837911;22;20021;-62
2021/12/19 11:49:11;;;;;;;11.05;6.10;;;;;;;;;;7837189;22;20434;-62
2021/12/19 11:52:24;;;;;;;10.43;5.88;;;;;;;;;;7808871;22;20385;-61
2021/12/19 11:55:29;;;;;;;10.20;5.60;;;;;;;;;;7838359;22;20015;-62
2021/12/19 11:58:42;;;;;;;10.32;6.03;;;;;;;;;;7837617;22;20065;-63
2021/12/19 12:01:46;;;;;;;9.02;5.22;;;;;;;;;;7837507;22;20026;-62
2021/12/19 12:05:08;;;;;;;11.73;6.00;;;;;;;;;;7796598;22;20046;-62
2021/12/19 12:08:12;;;;;;;11.50;5.97;;;;;;;;;;7797447;22;20347;-62
2021/12/19 12:11:15;;;;;;;11.02;5.90;;;;;;;;;;7824669;22;20095;-61
2021/12/19 12:14:21;;;;;;;9.95;5.88;;;;;;;;;;7795635;22;20346;-61
2021/12/19 12:17:28;;;;;;;10.30;5.78;;;;;;;;;;7837039;22;20110;-63
2021/12/19 12:20:32;;;;;;;7.97;5.43;;;;;;;;;;7837178;22;20026;-62
2021/12/19 12:23:37;;;;;;;9.93;5.88;;;;;;;;;;7809396;22;20564;-61
2021/12/19 12:26:52;;;;;;;10.48;5.70;;;;;;;;;;7795883;22;20049;-62
2021/12/19 12:29:57;;;;;;;9.80;5.63;;;;;;;;;;7837243;22;20090;-62
2021/12/19 12:33:02;;;;;;;10.48;5.40;;;;;;;;;;7797163;22;20022;-62
2021/12/19 12:36:05;;;;;;;11.13;5.85;;;;;;;;;;7823157;22;20102;-62
2021/12/19 12:39:14;;;;;;;13.48;5.38;;;;;;;;;;7824124;22;20019;-62
2021/12/19 12:42:22;;;;;;;10.50;6.18;;;;;;;;;;7809269;22;20034;-62
2021/12/19 12:45:27;;;;;;;10.90;6.28;;;;;;;;;;7837118;22;20049;-62
2021/12/19 12:48:49;;;;;;;11.48;5.60;;;;;;;;;;7823220;22;20023;-62
2021/12/19 12:52:00;;;;;;;10.68;5.80;;;;;;;;;;7800737;22;20023;-62
2021/12/19 12:55:04;;;;;;;9.98;5.70;;;;;;;;;;7837177;22;20068;-62
2021/12/19 12:58:15;;;;;;;8.07;5.20;;;;;;;;;;7823605;22;20076;-62
2021/12/19 13:01:22;;;;;;;9.05;5.18;;;;;;;;;;7808385;22;20042;-62
2021/12/19 13:04:26;;;;;;;10.18;5.85;;;;;;;;;;7834958;22;20022;-62
2021/12/19 13:07:29;;;;;;;9.38;5.22;;;;;;;;;;7824362;22;20103;-62
2021/12/19 13:10:33;;;;;;;7.65;4.80;;;;;;;;;;7795636;22;20826;-61
2021/12/19 13:13:38;;;;;;;10.10;5.10;;;;;;;;;;7836902;22;20026;-63
2021/12/19 13:16:43;;;;;;;10.07;5.18;;;;;;;;;;7824455;22;20015;-62
2021/12/19 13:19:56;;;;;;;10.00;5.57;;;;;;;;;;7824305;22;20022;-62
2021/12/19 13:23:00;;;;;;;7.85;4.57;;;;;;;;;;7835571;22;20381;-63
2021/12/19 13:26:07;;;;;;;9.38;4.97;;;;;;;;;;7810347;22;20315;-63
2021/12/19 13:29:17;;;;;;;9.20;4.72;;;;;;;;;;7799240;22;20023;-62
2021/12/19 13:32:26;;;;;;;8.10;4.90;;;;;;;;;;7810686;22;20019;-63
2021/12/19 13:35:30;;;;;;;7.72;4.55;;;;;;;;;;7804493;22;20446;-63
2021/12/19 13:38:33;;;;;;;7.20;5.13;;;;;;;;;;7799097;22;20039;-63
2021/12/19 13:41:38;;;;;;;8.57;5.53;;;;;;;;;;7839289;22;20019;-62
2021/12/19 13:44:42;;;;;;;9.05;5.05;;;;;;;;;;7797315;22;20022;-62
2021/12/19 13:47:47;;;;;;;9.00;5.20;;;;;;;;;;7799382;22;20019;-62
2021/12/19 13:50:50;;;;;;;7.90;5.40;;;;;;;;;;7826607;22;20045;-63
2021/12/19 13:53:54;;;;;;;10.18;5.55;;;;;;;;;;7797753;22;20065;-63
2021/12/19 13:56:58;;;;;;;7.38;4.90;;;;;;;;;;7798403;22;20457;-62
2021/12/19 14:00:01;;;;;;;9.45;5.07;;;;;;;;;;7826421;22;20564;-62
2021/12/19 14:03:15;;;;;;;8.98;5.15;;;;;;;;;;7838691;22;20086;-62
2021/12/19 14:06:22;;;;;;;10.55;5.72;;;;;;;;;;7800385;22;20017;-62
2021/12/19 14:09:25;;;;;;;6.85;5.18;;;;;;;;;;7811519;22;20019;-61
2021/12/19 14:12:51;;;;;;;8.40;5.50;;;;;;;;;;7798757;22;20019;-60
2021/12/19 14:15:52;;;;;;;6.53;4.43;;;;;;;;;;7823437;22;20015;-61
2021/12/19 14:18:59;;;;;;;8.07;4.72;;;;;;;;;;7809600;22;20026;-62
2021/12/19 14:22:10;;;;;;;7.43;4.47;;;;;;;;;;7798433;22;20346;-61
2021/12/19 14:25:25;;;;;;;6.60;4.75;;;;;;;;;;7838683;22;20529;-61
2021/12/19 14:28:33;;;;;;;11.05;5.28;;;;;;;;;;7796986;22;20016;-61
2021/12/19 14:31:46;;;;;;;6.32;4.57;;;;;;;;;;7838016;22;20011;-62
2021/12/19 14:34:54;;;;;;;12.15;5.25;;;;;;;;;;7805053;22;20019;-61
2021/12/19 14:37:58;;;;;;;8.30;5.15;;;;;;;;;;7823997;22;20015;-62
2021/12/19 14:41:03;;;;;;;8.20;4.57;;;;;;;;;;7796845;22;20038;-61
2021/12/19 14:44:17;;;;;;;7.00;4.82;;;;;;;;;;7825305;22;20016;-61
2021/12/19 14:47:34;;;;;;;8.82;5.20;;;;;;;;;;7811103;22;20089;-61
2021/12/19 14:50:50;;;;;;;8.40;4.65;;;;;;;;;;7825753;22;20023;-60
2021/12/19 14:53:58;;;;;;;10.02;5.47;;;;;;;;;;7809965;22;20015;-61
2021/12/19 14:57:04;;;;;;;11.35;5.38;;;;;;;;;;7838343;22;20042;-60
2021/12/19 15:00:08;;;;;;;10.00;5.07;;;;;;;;;;7825463;22;20034;-59
2021/12/19 15:03:11;;;;;;;6.95;4.47;;;;;;;;;;7824155;22;20016;-60
2021/12/19 15:06:21;;;;;;;7.82;5.05;;;;;;;;;;7797309;22;20740;-61
2021/12/19 15:09:27;;;;;;;9.43;5.40;;;;;;;;;;7838316;22;20302;-60
2021/12/19 15:12:30;;;;;;;8.80;4.35;;;;;;;;;;7838067;22;20037;-60
2021/12/19 15:15:33;;;;;;;7.72;5.15;;;;;;;;;;7823803;22;20327;-60
2021/12/19 15:18:36;;;;;;;8.80;5.32;;;;;;;;;;7825411;22;20094;-60
2021/12/19 15:21:40;;;;;;;7.70;5.13;;;;;;;;;;7824334;22;20413;-60
2021/12/19 15:24:44;;;;;;;11.07;5.60;;;;;;;;;;7794907;22;20072;-61
2021/12/19 15:27:50;;;;;;;12.20;5.45;;;;;;;;;;7824267;22;20011;-60
2021/12/19 15:30:56;;;;;;;9.77;4.97;;;;;;;;;;7838213;22;20026;-60
2021/12/19 15:34:00;;;;;;;7.65;5.25;;;;;;;;;;7825168;22;20760;-59
2021/12/19 15:37:05;;;;;;;8.23;4.90;;;;;;;;;;7823688;22;20030;-61
2021/12/19 15:40:10;;;;;;;9.00;5.60;;;;;;;;;;7825090;22;20067;-61
2021/12/19 15:43:13;;;;;;;9.05;5.40;;;;;;;;;;7824719;22;20590;-61
2021/12/19 15:46:18;;;;;;;9.60;5.20;;;;;;;;;;7823657;22;20457;-61
2021/12/19 15:49:24;;;;;;;12.98;6.90;;;;;;;;;;7836891;22;20028;-61
2021/12/19 15:52:29;;;;;;;11.40;5.40;;;;;;;;;;7824938;22;20346;-60
2021/12/19 15:55:32;;;;;;;8.95;5.47;;;;;;;;;;7797164;22;20460;-61
2021/12/19 15:58:38;;;;;;;8.38;5.60;;;;;;;;;;7808863;22;20473;-60
2021/12/19 16:01:41;;;;;;;9.48;5.07;;;;;;;;;;7824960;22;20434;-60
2021/12/19 16:04:44;;;;;;;7.47;4.55;;;;;;;;;;7797503;22;20019;-60
2021/12/19 16:07:52;;;;;;;7.85;4.70;;;;;;;;;;7808595;22;20380;-61
2021/12/19 16:10:55;;;;;;;6.95;4.88;;;;;;;;;;7824571;22;20025;-61
2021/12/19 16:13:58;;;;;;;6.93;4.45;;;;;;;;;;7824736;22;20015;-61
2021/12/19 16:17:01;;;;;;;20.60;11.15;;;;;;;;;;7824663;22;20061;-61
2021/12/19 16:20:08;;;;;;;8.00;4.85;;;;;;;;;;7809205;22;20022;-60
2021/12/19 16:23:13;;;;;;;8.38;5.25;;;;;;;;;;7827223;22;20019;-62
2021/12/19 16:26:16;;;;;;;6.72;4.50;;;;;;;;;;7825979;22;20043;-60
2021/12/19 16:29:21;;;;;;;6.97;4.78;;;;;;;;;;7823993;22;20018;-61
2021/12/19 16:32:25;;;;;;;7.53;5.03;;;;;;;;;;7824659;22;20065;-60
2021/12/19 16:35:29;;;;;;;7.43;4.75;;;;;;;;;;7797107;22;20042;-60
2021/12/19 16:38:34;;;;;;;7.72;4.80;;;;;;;;;;7823624;22;20050;-61
2021/12/19 16:41:48;;;;;;;10.27;4.95;;;;;;;;;;7836300;22;20327;-61
2021/12/19 16:44:51;;;;;;;8.02;4.72;;;;;;;;;;7798713;22;20019;-61
2021/12/19 16:47:55;;;;;;;7.78;5.22;;;;;;;;;;7822850;22;20023;-61
2021/12/19 16:50:59;;;;;;;6.28;4.47;;;;;;;;;;7820872;22;20445;-61
2021/12/19 16:54:03;;;;;;;8.52;4.97;;;;;;;;;;7824302;22;20011;-61
2021/12/19 16:57:07;;;;;;;7.38;4.80;;;;;;;;;;7796926;22;20019;-61
2021/12/19 17:00:11;;;;;;;8.10;4.80;;;;;;;;;;7795884;22;20022;-61
2021/12/19 17:03:14;;;;;;;8.77;4.78;;;;;;;;;;7825984;22;20025;-62
2021/12/19 17:06:17;;;;;;;7.95;5.25;;;;;;;;;;7827021;22;20016;-60
2021/12/19 17:09:22;;;;;;;8.48;4.60;;;;;;;;;;7826678;22;20102;-60
2021/12/19 17:12:25;;;;;;;7.25;4.82;;;;;;;;;;7838294;22;20025;-60
2021/12/19 17:15:29;;;;;;;8.23;4.88;;;;;;;;;;7798791;22;20019;-61
2021/12/19 17:18:32;;;;;;;7.72;5.18;;;;;;;;;;7797994;22;20022;-61
2021/12/19 17:21:38;;;;;;;9.07;4.93;;;;;;;;;;7838297;22;20072;-61
2021/12/19 17:24:43;;;;;;;7.35;4.82;;;;;;;;;;7826076;22;20062;-60
2021/12/19 17:27:46;;;;;;;7.93;4.85;;;;;;;;;;7826839;22;20065;-61
2021/12/19 17:30:55;;;;;;;6.35;4.75;;;;;;;;;;7824437;22;20019;-60
2021/12/19 17:33:58;;;;;;;8.18;5.03;;;;;;;;;;7805876;22;20061;-61
2021/12/19 17:37:03;;;;;;;8.30;5.00;;;;;;;;;;7824018;22;20024;-60
2021/12/19 17:40:26;;;;;;;8.27;4.80;;;;;;;;;;7836419;22;20040;-60
2021/12/19 17:43:30;;;;;;;9.50;5.53;;;;;;;;;;7828065;22;20015;-61
2021/12/19 17:46:34;;;;;;;6.72;4.85;;;;;;;;;;7819176;22;20026;-61
2021/12/19 17:49:38;;;;;;;9.15;5.40;;;;;;;;;;7792895;22;20468;-61
2021/12/19 17:52:41;;;;;;;8.35;5.10;;;;;;;;;;7820180;22;20015;-61
2021/12/19 17:55:45;;;;;;;9.30;5.00;;;;;;;;;;7792017;22;20446;-60
2021/12/19 17:58:51;;;;;;;9.30;5.05;;;;;;;;;;7836462;22;20015;-60
2021/12/19 18:01:55;;;;;;;8.82;4.80;;;;;;;;;;7823612;22;20533;-61
2021/12/19 18:05:02;;;;;;;7.65;5.00;;;;;;;;;;7833646;22;20086;-61
2021/12/19 18:08:08;;;;;;;7.90;4.85;;;;;;;;;;7838434;22;20015;-60
2021/12/19 18:11:12;;;;;;;8.02;5.07;;;;;;;;;;7799580;22;20038;-60
2021/12/19 18:14:15;;;;;;;66.88;34.75;;;;;;;;;;7825917;22;20323;-61
2021/12/19 18:17:18;;;;;;;15.32;7.07;;;;;;;;;;7824841;22;20095;-63
2021/12/19 18:20:22;;;;;;;7.85;5.40;;;;;;;;;;7799235;22;20075;-61
2021/12/19 18:23:25;;;;;;;8.63;5.10;;;;;;;;;;7799337;22;20026;-61
2021/12/19 18:26:30;;;;;;;9.43;5.30;;;;;;;;;;7824467;22;20461;-61
2021/12/19 18:29:36;;;;;;;7.97;5.13;;;;;;;;;;7826046;22;20015;-61
2021/12/19 18:32:39;;;;;;;9.27;5.38;;;;;;;;;;7839130;22;20022;-61
2021/12/19 18:35:46;;;;;;;9.35;5.15;;;;;;;;;;7825756;22;20015;-61
2021/12/19 18:38:49;;;;;;;8.40;5.18;;;;;;;;;;7837398;22;20027;-61
2021/12/19 18:42:00;;;;;;;8.07;5.18;;;;;;;;;;7798862;22;20332;-62
2021/12/19 18:45:11;;;;;;;7.88;5.05;;;;;;;;;;7826712;22;20347;-62
2021/12/19 18:48:27;;;;;;;10.93;5.15;;;;;;;;;;7837461;22;20540;-62
2021/12/19 18:51:51;;;;;;;8.60;5.20;;;;;;;;;;7837735;22;20019;-62
2021/12/19 18:55:11;;;;;;;8.43;5.55;;;;;;;;;;7826160;22;20094;-62
2021/12/19 18:58:18;;;;;;;7.88;5.07;;;;;;;;;;7811299;22;20019;-62
2021/12/19 19:01:34;;;;;;;7.75;5.00;;;;;;;;;;7838026;22;20473;-62